Wetterdaten: aktuell Samstag, 02.05.2026 17:10
Datum Zeit Temp. A. Feuchte A. Luftdruck Regen Wind Richtung Richtung Taupunkt Windchill Windböen
02.05.2026 17:10 20,1 °C 31 % 1020,5 hPa 0,0 l/m² 4,2 km/h (1 Bft) W-SW 238 ° 2,4 °C 20,1 °C 9,7 km/h (2 Bft)
02.05.2026 17:05 19,9 °C 31 % 1020,6 hPa 0,0 l/m² 4,4 km/h (1 Bft) S-SW 213 ° 2,3 °C 19,9 °C 11,3 km/h (2 Bft)
02.05.2026 17:00 20,1 °C 31 % 1020,5 hPa 0,0 l/m² 3,0 km/h (1 Bft) S-SW 199 ° 2,4 °C 20,1 °C 8,0 km/h (2 Bft)
02.05.2026 16:55 20,3 °C 31 % 1020,6 hPa 0,0 l/m² 4,0 km/h (1 Bft) S-SW 192 ° 2,6 °C 20,3 °C 12,9 km/h (3 Bft)
02.05.2026 16:50 20,3 °C 32 % 1020,7 hPa 0,0 l/m² 4,3 km/h (1 Bft) O-SO 121 ° 3,1 °C 20,3 °C 11,3 km/h (2 Bft)
02.05.2026 16:45 20,1 °C 31 % 1020,7 hPa 0,0 l/m² 4,1 km/h (1 Bft) O-SO 115 ° 2,4 °C 20,1 °C 9,7 km/h (2 Bft)
02.05.2026 16:40 20,3 °C 32 % 1020,8 hPa 0,0 l/m² 7,1 km/h (2 Bft) S-SW 211 ° 3,1 °C 20,0 °C 12,9 km/h (3 Bft)
02.05.2026 16:35 20,2 °C 33 % 1020,9 hPa 0,0 l/m² 7,6 km/h (2 Bft) S-SW 202 ° 3,4 °C 19,7 °C 14,5 km/h (3 Bft)
02.05.2026 16:30 19,9 °C 33 % 1020,8 hPa 0,0 l/m² 3,0 km/h (1 Bft) S-SW 200 ° 3,2 °C 19,9 °C 8,0 km/h (2 Bft)
02.05.2026 16:25 19,9 °C 34 % 1020,9 hPa 0,0 l/m² 2,9 km/h (1 Bft) S 178 ° 3,6 °C 19,9 °C 6,4 km/h (2 Bft)
02.05.2026 16:20 20,1 °C 34 % 1021,0 hPa 0,0 l/m² 3,4 km/h (1 Bft) S 176 ° 3,7 °C 20,1 °C 12,9 km/h (3 Bft)
02.05.2026 16:15 20,3 °C 33 % 1021,1 hPa 0,0 l/m² 6,7 km/h (2 Bft) S-SW 201 ° 3,5 °C 20,2 °C 16,1 km/h (3 Bft)
02.05.2026 16:10 20,3 °C 35 % 1021,2 hPa 0,0 l/m² 5,1 km/h (1 Bft) SW 220 ° 4,3 °C 20,3 °C 16,1 km/h (3 Bft)
02.05.2026 16:05 20,2 °C 32 % 1021,2 hPa 0,0 l/m² 8,0 km/h (2 Bft) SO 145 ° 3,0 °C 19,6 °C 16,1 km/h (3 Bft)
02.05.2026 16:00 19,9 °C 33 % 1021,2 hPa 0,0 l/m² 5,1 km/h (1 Bft) SW 217 ° 3,2 °C 19,9 °C 17,7 km/h (3 Bft)
02.05.2026 15:55 19,8 °C 35 % 1021,3 hPa 0,0 l/m² 4,5 km/h (1 Bft) S-SW 209 ° 3,9 °C 19,8 °C 11,3 km/h (2 Bft)
02.05.2026 15:50 19,8 °C 34 % 1021,3 hPa 0,0 l/m² 3,1 km/h (1 Bft) S-SO 165 ° 3,5 °C 19,8 °C 8,0 km/h (2 Bft)
02.05.2026 15:45 20,1 °C 35 % 1021,4 hPa 0,0 l/m² 6,4 km/h (2 Bft) S 177 ° 4,2 °C 20,1 °C 16,1 km/h (3 Bft)
02.05.2026 15:40 20,4 °C 34 % 1021,4 hPa 0,0 l/m² 7,0 km/h (2 Bft) S-SW 210 ° 4,0 °C 20,2 °C 27,4 km/h (4 Bft)
02.05.2026 15:35 20,4 °C 37 % 1021,5 hPa 0,0 l/m² 6,9 km/h (2 Bft) SW 219 ° 5,2 °C 20,2 °C 16,1 km/h (3 Bft)
02.05.2026 15:30 20,2 °C 36 % 1021,5 hPa 0,0 l/m² 3,2 km/h (1 Bft) W 264 ° 4,7 °C 20,2 °C 11,3 km/h (2 Bft)
02.05.2026 15:25 20,3 °C 37 % 1021,6 hPa 0,0 l/m² 8,6 km/h (2 Bft) S 176 ° 5,1 °C 19,4 °C 16,1 km/h (3 Bft)
02.05.2026 15:20 20,0 °C 37 % 1021,7 hPa 0,0 l/m² 5,1 km/h (1 Bft) S-SW 198 ° 4,9 °C 20,0 °C 14,5 km/h (3 Bft)
02.05.2026 15:15 19,9 °C 35 % 1021,7 hPa 0,0 l/m² 6,2 km/h (2 Bft) N 355 ° 4,0 °C 19,9 °C 16,1 km/h (3 Bft)
02.05.2026 15:10 19,7 °C 40 % 1021,7 hPa 0,0 l/m² 1,6 km/h (1 Bft) O-SO 103 ° 5,7 °C 19,7 °C 6,4 km/h (2 Bft)
02.05.2026 15:05 19,7 °C 38 % 1021,9 hPa 0,0 l/m² 1,8 km/h (1 Bft) S 184 ° 5,0 °C 19,7 °C 4,8 km/h (1 Bft)
02.05.2026 15:00 19,9 °C 38 % 1021,8 hPa 0,0 l/m² 4,3 km/h (1 Bft) S-SO 160 ° 5,2 °C 19,9 °C 20,9 km/h (4 Bft)
02.05.2026 14:55 20,3 °C 36 % 1021,9 hPa 0,0 l/m² 7,0 km/h (2 Bft) S 175 ° 4,7 °C 20,1 °C 16,1 km/h (3 Bft)
02.05.2026 14:50 19,9 °C 36 % 1022,1 hPa 0,0 l/m² 5,8 km/h (2 Bft) W-SW 255 ° 4,4 °C 19,9 °C 14,5 km/h (3 Bft)
02.05.2026 14:45 20,1 °C 41 % 1022,2 hPa 0,0 l/m² 8,1 km/h (2 Bft) S-SW 202 ° 6,4 °C 19,4 °C 19,3 km/h (3 Bft)
02.05.2026 14:40 20,2 °C 40 % 1022,2 hPa 0,0 l/m² 9,1 km/h (2 Bft) W 265 ° 6,2 °C 19,2 °C 16,1 km/h (3 Bft)
02.05.2026 14:35 19,8 °C 40 % 1022,3 hPa 0,0 l/m² 5,9 km/h (2 Bft) S 189 ° 5,8 °C 19,8 °C 14,5 km/h (3 Bft)
02.05.2026 14:30 19,6 °C 39 % 1022,4 hPa 0,0 l/m² 2,4 km/h (1 Bft) S 185 ° 5,3 °C 19,6 °C 6,4 km/h (2 Bft)
02.05.2026 14:25 19,6 °C 39 % 1022,5 hPa 0,0 l/m² 3,8 km/h (1 Bft) SO 140 ° 5,3 °C 19,6 °C 14,5 km/h (3 Bft)
02.05.2026 14:20 19,4 °C 40 % 1022,4 hPa 0,0 l/m² 7,7 km/h (2 Bft) S-SW 192 ° 5,5 °C 18,8 °C 17,7 km/h (3 Bft)
02.05.2026 14:15 19,2 °C 41 % 1022,5 hPa 0,0 l/m² 2,0 km/h (1 Bft) S-SO 155 ° 5,6 °C 19,2 °C 4,8 km/h (1 Bft)
02.05.2026 14:10 19,2 °C 39 % 1022,6 hPa 0,0 l/m² 4,4 km/h (1 Bft) O-NO 59 ° 4,9 °C 19,2 °C 14,5 km/h (3 Bft)
02.05.2026 14:05 19,2 °C 42 % 1022,7 hPa 0,0 l/m² 2,2 km/h (1 Bft) S-SO 157 ° 6,0 °C 19,2 °C 6,4 km/h (2 Bft)
02.05.2026 14:00 19,6 °C 38 % 1022,8 hPa 0,0 l/m² 4,0 km/h (1 Bft) O 86 ° 4,9 °C 19,6 °C 12,9 km/h (3 Bft)
02.05.2026 13:55 19,3 °C 41 % 1022,9 hPa 0,0 l/m² 3,9 km/h (1 Bft) SW 226 ° 5,7 °C 19,3 °C 16,1 km/h (3 Bft)
02.05.2026 13:50 19,3 °C 42 % 1022,8 hPa 0,0 l/m² 2,3 km/h (1 Bft) SW 233 ° 6,1 °C 19,3 °C 8,0 km/h (2 Bft)
02.05.2026 13:45 19,4 °C 40 % 1022,9 hPa 0,0 l/m² 2,6 km/h (1 Bft) NO 50 ° 5,5 °C 19,4 °C 8,0 km/h (2 Bft)
02.05.2026 13:40 19,3 °C 41 % 1023,0 hPa 0,0 l/m² 4,8 km/h (1 Bft) S 180 ° 5,7 °C 19,3 °C 12,9 km/h (3 Bft)
02.05.2026 13:35 18,8 °C 43 % 1023,0 hPa 0,0 l/m² 3,0 km/h (1 Bft) SW 218 ° 6,0 °C 18,8 °C 12,9 km/h (3 Bft)
02.05.2026 13:30 18,8 °C 39 % 1023,2 hPa 0,0 l/m² 2,5 km/h (1 Bft) S 178 ° 4,6 °C 18,8 °C 6,4 km/h (2 Bft)
02.05.2026 13:25 19,1 °C 39 % 1023,2 hPa 0,0 l/m² 2,7 km/h (1 Bft) NO 49 ° 4,8 °C 19,1 °C 8,0 km/h (2 Bft)
02.05.2026 13:20 19,3 °C 41 % 1023,3 hPa 0,0 l/m² 6,2 km/h (2 Bft) S-SO 153 ° 5,7 °C 19,3 °C 17,7 km/h (3 Bft)
02.05.2026 13:15 19,1 °C 43 % 1023,3 hPa 0,0 l/m² 4,0 km/h (1 Bft) S-SO 165 ° 6,2 °C 19,1 °C 14,5 km/h (3 Bft)
02.05.2026 13:10 18,8 °C 42 % 1023,4 hPa 0,0 l/m² 3,5 km/h (1 Bft) W-SW 242 ° 5,6 °C 18,8 °C 8,0 km/h (2 Bft)
02.05.2026 13:05 18,8 °C 44 % 1023,4 hPa 0,0 l/m² 9,9 km/h (2 Bft) S-SO 164 ° 6,3 °C 17,4 °C 20,9 km/h (4 Bft)
02.05.2026 13:00 18,7 °C 39 % 1023,6 hPa 0,0 l/m² 6,3 km/h (2 Bft) W-NW 286 ° 4,5 °C 18,7 °C 16,1 km/h (3 Bft)
02.05.2026 12:55 18,6 °C 41 % 1023,5 hPa 0,0 l/m² 8,6 km/h (2 Bft) O-NO 66 ° 5,1 °C 17,6 °C 22,5 km/h (4 Bft)
02.05.2026 12:50 18,5 °C 38 % 1023,5 hPa 0,0 l/m² 11,1 km/h (2 Bft) SW 233 ° 3,9 °C 16,6 °C 24,1 km/h (4 Bft)
02.05.2026 12:45 18,8 °C 42 % 1023,6 hPa 0,0 l/m² 9,5 km/h (2 Bft) S-SW 201 ° 5,6 °C 17,5 °C 19,3 km/h (3 Bft)
02.05.2026 12:40 18,6 °C 43 % 1023,7 hPa 0,0 l/m² 4,3 km/h (1 Bft) SW 218 ° 5,8 °C 18,6 °C 12,9 km/h (3 Bft)
02.05.2026 12:35 18,2 °C 41 % 1023,6 hPa 0,0 l/m² 9,0 km/h (2 Bft) SW 223 ° 4,7 °C 17,0 °C 20,9 km/h (4 Bft)
02.05.2026 12:30 17,9 °C 42 % 1023,7 hPa 0,0 l/m² 11,0 km/h (2 Bft) S-SO 160 ° 4,8 °C 16,0 °C 19,3 km/h (3 Bft)
02.05.2026 12:25 18,2 °C 44 % 1023,8 hPa 0,0 l/m² 7,3 km/h (2 Bft) S-SW 194 ° 5,7 °C 17,8 °C 16,1 km/h (3 Bft)
02.05.2026 12:20 17,9 °C 45 % 1023,8 hPa 0,0 l/m² 6,4 km/h (2 Bft) S 170 ° 5,8 °C 17,9 °C 17,7 km/h (3 Bft)
02.05.2026 12:15 17,9 °C 47 % 1023,9 hPa 0,0 l/m² 6,4 km/h (2 Bft) W-SW 248 ° 6,4 °C 17,9 °C 12,9 km/h (3 Bft)
02.05.2026 12:10 17,7 °C 49 % 1023,9 hPa 0,0 l/m² 3,5 km/h (1 Bft) S-SW 211 ° 6,9 °C 17,7 °C 14,5 km/h (3 Bft)
02.05.2026 12:05 17,7 °C 48 % 1023,9 hPa 0,0 l/m² 6,2 km/h (2 Bft) S-SW 202 ° 6,6 °C 17,7 °C 19,3 km/h (3 Bft)
02.05.2026 12:00 17,7 °C 48 % 1024,0 hPa 0,0 l/m² 1,5 km/h (1 Bft) S-SO 147 ° 6,6 °C 17,7 °C 4,8 km/h (1 Bft)
02.05.2026 11:55 17,4 °C 49 % 1024,0 hPa 0,0 l/m² 2,0 km/h (1 Bft) S-SO 149 ° 6,6 °C 17,4 °C 8,0 km/h (2 Bft)
02.05.2026 11:50 17,3 °C 48 % 1024,1 hPa 0,0 l/m² 9,0 km/h (2 Bft) S-SW 198 ° 6,2 °C 16,1 °C 19,3 km/h (3 Bft)
02.05.2026 11:45 17,3 °C 48 % 1024,2 hPa 0,0 l/m² 4,7 km/h (1 Bft) S 180 ° 6,2 °C 17,3 °C 14,5 km/h (3 Bft)
02.05.2026 11:40 17,1 °C 46 % 1024,2 hPa 0,0 l/m² 2,5 km/h (1 Bft) O 96 ° 5,4 °C 17,1 °C 8,0 km/h (2 Bft)
02.05.2026 11:35 17,0 °C 49 % 1024,3 hPa 0,0 l/m² 3,0 km/h (1 Bft) S-SO 149 ° 6,2 °C 17,0 °C 11,3 km/h (2 Bft)
02.05.2026 11:30 17,1 °C 48 % 1024,4 hPa 0,0 l/m² 2,3 km/h (1 Bft) O-SO 117 ° 6,0 °C 17,1 °C 4,8 km/h (1 Bft)
02.05.2026 11:25 16,7 °C 49 % 1024,3 hPa 0,0 l/m² 4,5 km/h (1 Bft) S 169 ° 5,9 °C 16,7 °C 11,3 km/h (2 Bft)
02.05.2026 11:20 16,6 °C 50 % 1024,4 hPa 0,0 l/m² 6,9 km/h (2 Bft) S 184 ° 6,1 °C 16,3 °C 14,5 km/h (3 Bft)
02.05.2026 11:15 16,5 °C 50 % 1024,4 hPa 0,0 l/m² 3,4 km/h (1 Bft) O 101 ° 6,0 °C 16,5 °C 12,9 km/h (3 Bft)
02.05.2026 11:10 16,6 °C 48 % 1024,5 hPa 0,0 l/m² 8,2 km/h (2 Bft) S 190 ° 5,5 °C 15,7 °C 19,3 km/h (3 Bft)
02.05.2026 11:05 16,6 °C 48 % 1024,4 hPa 0,0 l/m² 4,2 km/h (1 Bft) S-SW 200 ° 5,5 °C 16,6 °C 14,5 km/h (3 Bft)
02.05.2026 11:00 16,3 °C 53 % 1024,7 hPa 0,0 l/m² 4,1 km/h (1 Bft) S 183 ° 6,7 °C 16,3 °C 16,1 km/h (3 Bft)
02.05.2026 10:55 16,3 °C 51 % 1024,6 hPa 0,0 l/m² 8,4 km/h (2 Bft) S-SO 159 ° 6,1 °C 15,3 °C 19,3 km/h (3 Bft)
02.05.2026 10:50 16,3 °C 50 % 1024,7 hPa 0,0 l/m² 3,8 km/h (1 Bft) S 175 ° 5,9 °C 16,3 °C 9,7 km/h (2 Bft)
02.05.2026 10:45 16,1 °C 50 % 1024,7 hPa 0,0 l/m² 4,8 km/h (1 Bft) S-SW 209 ° 5,7 °C 16,1 °C 16,1 km/h (3 Bft)
02.05.2026 10:40 16,2 °C 48 % 1024,7 hPa 0,0 l/m² 4,6 km/h (1 Bft) N-NW 344 ° 5,2 °C 16,2 °C 14,5 km/h (3 Bft)
02.05.2026 10:35 16,2 °C 49 % 1024,8 hPa 0,0 l/m² 6,8 km/h (2 Bft) S 171 ° 5,5 °C 16,0 °C 19,3 km/h (3 Bft)
02.05.2026 10:30 16,1 °C 49 % 1024,9 hPa 0,0 l/m² 4,4 km/h (1 Bft) S 169 ° 5,4 °C 16,1 °C 14,5 km/h (3 Bft)
02.05.2026 10:25 15,9 °C 47 % 1024,8 hPa 0,0 l/m² 7,2 km/h (2 Bft) S 191 ° 4,6 °C 15,5 °C 22,5 km/h (4 Bft)
02.05.2026 10:20 15,8 °C 49 % 1025,0 hPa 0,0 l/m² 5,2 km/h (1 Bft) S-SW 198 ° 5,1 °C 15,8 °C 14,5 km/h (3 Bft)
02.05.2026 10:15 15,7 °C 49 % 1025,0 hPa 0,0 l/m² 4,6 km/h (1 Bft) SO 138 ° 5,0 °C 15,7 °C 11,3 km/h (2 Bft)
02.05.2026 10:10 15,6 °C 50 % 1025,0 hPa 0,0 l/m² 7,1 km/h (2 Bft) S-SW 209 ° 5,2 °C 15,2 °C 19,3 km/h (3 Bft)
02.05.2026 10:05 15,6 °C 50 % 1025,0 hPa 0,0 l/m² 6,6 km/h (2 Bft) S 171 ° 5,2 °C 15,5 °C 14,5 km/h (3 Bft)
02.05.2026 10:00 15,2 °C 51 % 1025,1 hPa 0,0 l/m² 9,0 km/h (2 Bft) S-SW 209 ° 5,1 °C 13,8 °C 19,3 km/h (3 Bft)
02.05.2026 09:55 15,4 °C 49 % 1025,0 hPa 0,0 l/m² 5,1 km/h (1 Bft) S-SW 198 ° 4,7 °C 15,4 °C 14,5 km/h (3 Bft)
02.05.2026 09:50 15,1 °C 50 % 1025,1 hPa 0,0 l/m² 10,2 km/h (2 Bft) S-SW 213 ° 4,8 °C 13,1 °C 20,9 km/h (4 Bft)
02.05.2026 09:45 15,4 °C 51 % 1025,0 hPa 0,0 l/m² 7,0 km/h (2 Bft) S-SW 200 ° 5,3 °C 15,1 °C 17,7 km/h (3 Bft)
02.05.2026 09:40 15,3 °C 48 % 1025,0 hPa 0,0 l/m² 4,7 km/h (1 Bft) S-SO 153 ° 4,4 °C 15,3 °C 11,3 km/h (2 Bft)
02.05.2026 09:35 15,3 °C 49 % 1025,2 hPa 0,0 l/m² 6,4 km/h (2 Bft) SW 225 ° 4,7 °C 15,3 °C 17,7 km/h (3 Bft)
02.05.2026 09:30 15,4 °C 52 % 1025,1 hPa 0,0 l/m² 5,1 km/h (1 Bft) SW 233 ° 5,6 °C 15,4 °C 11,3 km/h (2 Bft)
02.05.2026 09:25 15,1 °C 51 % 1025,1 hPa 0,0 l/m² 3,1 km/h (1 Bft) S 173 ° 5,0 °C 15,1 °C 8,0 km/h (2 Bft)
02.05.2026 09:20 14,8 °C 49 % 1025,0 hPa 0,0 l/m² 3,9 km/h (1 Bft) O-SO 108 ° 4,2 °C 14,8 °C 11,3 km/h (2 Bft)
02.05.2026 09:15 14,8 °C 51 % 1025,1 hPa 0,0 l/m² 6,9 km/h (2 Bft) S-SW 211 ° 4,8 °C 14,5 °C 19,3 km/h (3 Bft)
02.05.2026 09:10 14,5 °C 52 % 1025,1 hPa 0,0 l/m² 7,2 km/h (2 Bft) S 190 ° 4,8 °C 14,0 °C 16,1 km/h (3 Bft)
02.05.2026 09:05 14,2 °C 53 % 1025,1 hPa 0,0 l/m² 10,7 km/h (2 Bft) SO 134 ° 4,8 °C 11,9 °C 22,5 km/h (4 Bft)
02.05.2026 09:00 14,1 °C 53 % 1025,2 hPa 0,0 l/m² 10,2 km/h (2 Bft) S-SO 149 ° 4,7 °C 12,0 °C 17,7 km/h (3 Bft)
02.05.2026 08:55 14,3 °C 54 % 1025,1 hPa 0,0 l/m² 8,8 km/h (2 Bft) S-SW 196 ° 5,1 °C 12,9 °C 19,3 km/h (3 Bft)
_ Min-Zeit 02:20 16:45 17:00 - 19:30 - - 05:45 02:20 19:35
Minimum _ 3,4 °C 31 % 1020,5 hPa - 0,0 km/h (0 Bft) - - 1,4 °C 3,5 °C 0,0 km/h (0 Bft)
_ Max-Zeit 15:35 00:55 22:15 18:00 12:50 - - 08:10 16:10 15:40
Maximum _ 20,4 °C 88 % 1028,3 hPa 0,0 l/m² 11,1 km/h
SW (2 Bft)
- - 6,9 °C 20,3 °C 27,4 km/h
W-SW (4 Bft)
Durchschnitt _ 11,5 °C 64 % 1025,8 hPa #0,0 l/m² 2,6 km/h (1 Bft) S-SW - 3,9 °C 11,3 °C 7,4 km/h (2 Bft)